Alexander, NC

8:57 AM EDT on September 05, 2015 (GMT -0400)
Lone Pine Road | | Change Station
CLOSE
Current Station
Personal Weather Station
Location: Alexander, NC
Elevation: 2126 ft
Nearby Weather Stations

Elev 2126 ft 35.74 °N, 82.64 °W | Updated 7 minutes ago

Clear
Clear
63.9 °F
Feels Like 63.9 °F
N
2.7
Wind Variable Wind from SSW

Today
High -- | Low -- °F
--% Chance of Precip.
Yesterday
High -- | Low -- °F
Precip. -- in
7:05 AM 7:52 PM
Waning Gibbous, 49% visible
Pressure 30.18 in
Visibility 10.0 miles
Clouds Mostly Cloudy 2600 ft
Dew Point 64 °F
Humidity 99%
Rainfall 0.00 in
Snow Depth Not available.
UV 1 out of 12
Pollen 8.20 out of 12
Air Quality Not available.
Flu Activity Not available.
METAR KAVL 051254Z 00000KT 10SM BKN026 19/16 A3025 RMK AO2 SLP219 T01890161
Pressure 30.18 in
Visibility 10.0 miles
Clouds Mostly Cloudy 2600 ft
Dew Point 64 °F
Humidity 99%
Rainfall 0.00 in
Snow Depth Not available.
UV 1 out of 12
Pollen 8.20 out of 12
Air Quality Not available.
Flu Activity Not available.
METAR KAVL 051254Z 00000KT 10SM BKN026 19/16 A3025 RMK AO2 SLP219 T01890161

10-Day Weather Forecast

×

Almanac

Astronomy

Sep. 05, 2015 Rise Set
Actual Time
Civil Twilight
Nautical Twilight
Astronomical Twilight
Moon
Length of Visible Light
Length of Day
Tomorrow will be .
, % of the Moon is Illuminated

Today's Extremes

State Highs State Lows

Community

WunderPhotos

Upload Photos

1,852,454 photos uploaded!

WunderBlogs® & News

Nearby

Air Quality

  Air Quality AQ Index Pollutant
Not available.

Snow Depth

Station Depth Elevation

Earthquake Activity

City Distance Mag. Time & Date
Minimum magnitude displayed is 2.5.

Coastal Water Temperatures

Place Temperature

Stations

Nearby Weather Stations

Station Location Temp. Windchill Dew Point Humidity Wind Precip. Elev Updated Type